Time;durP1;ratioP1;P1;durP2;ratioP2;P2;SDS_P1;SDS_P2;PMS_P1;PMS_P2;Temp;Humidity;BMP_temperature;BMP_pressure;BME280_temperature;BME280_humidity;BME280_pressure;Samples;Min_cycle;Max_cycle;Signal;HPM_P1;HPM_P2
2021/10/16 00:02:06;;;;;;;34.22;23.80;;;256.80;2252.80;;;;;;5072432;28;20024;-74
2021/10/16 00:04:31;;;;;;;33.45;24.52;;;256.80;2252.80;;;;;;5072297;28;20013;-74
2021/10/16 00:06:57;;;;;;;37.45;25.77;;;256.50;2252.80;;;;;;5073793;28;20024;-75
2021/10/16 00:09:23;;;;;;;34.10;23.42;;;256.80;2252.80;;;;;;5072313;28;20013;-75
2021/10/16 00:11:49;;;;;;;32.90;23.95;;;256.80;2252.80;;;;;;5072600;28;20497;-74
2021/10/16 00:14:15;;;;;;;33.53;23.92;;;256.80;2252.80;;;;;;5073211;28;20028;-74
2021/10/16 00:16:40;;;;;;;33.10;23.25;;;256.80;2252.80;;;;;;5072324;28;20080;-73
2021/10/16 00:19:07;;;;;;;32.22;23.15;;;256.80;2252.80;;;;;;5073846;28;20033;-75
2021/10/16 00:21:34;;;;;;;32.92;22.67;;;256.80;2252.80;;;;;;5054931;28;20394;-74
2021/10/16 00:24:00;;;;;;;32.85;22.58;;;256.80;2252.80;;;;;;5073348;28;20027;-74
2021/10/16 00:26:26;;;;;;;31.50;22.83;;;256.70;2252.80;;;;;;5071833;28;20017;-74
2021/10/16 00:28:52;;;;;;;33.88;24.08;;;256.70;2252.80;;;;;;5071827;28;20028;-74
2021/10/16 00:31:17;;;;;;;32.60;21.35;;;256.70;2252.80;;;;;;5071904;28;20017;-74
2021/10/16 00:33:43;;;;;;;35.40;23.25;;;256.70;2252.80;;;;;;5072966;28;20103;-74
2021/10/16 00:36:09;;;;;;;36.47;22.98;;;256.70;2252.80;;;;;;5055658;28;20391;-74
2021/10/16 00:38:35;;;;;;;33.47;22.40;;;256.70;2252.80;;;;;;5061851;28;20047;-74
2021/10/16 00:41:01;;;;;;;35.13;25.15;;;256.70;2252.80;;;;;;5072177;28;20501;-74
2021/10/16 00:43:27;;;;;;;39.70;24.83;;;256.60;2252.80;;;;;;5072859;28;20048;-74
2021/10/16 00:45:53;;;;;;;32.72;23.02;;;256.70;2252.80;;;;;;5054438;28;20044;-74
2021/10/16 00:48:19;;;;;;;32.15;21.88;;;256.60;2252.80;;;;;;5071959;28;20028;-73
2021/10/16 00:50:45;;;;;;;37.20;23.88;;;256.60;2252.80;;;;;;5054463;28;20029;-73
2021/10/16 00:53:12;;;;;;;32.00;22.15;;;256.60;2252.80;;;;;;5053747;28;20048;-74
2021/10/16 00:55:40;;;;;;;36.63;22.45;;;256.60;2252.80;;;;;;5072076;28;20795;-74
2021/10/16 00:58:06;;;;;;;40.83;24.50;;;256.60;2252.80;;;;;;5071564;28;20052;-73
2021/10/16 01:00:32;;;;;;;31.95;22.13;;;256.60;2252.80;;;;;;5052796;28;20146;-74
2021/10/16 01:02:58;;;;;;;32.65;22.90;;;256.60;2252.80;;;;;;5070684;28;20503;-74
2021/10/16 01:05:24;;;;;;;37.50;25.17;;;256.60;2252.80;;;;;;5054604;28;20025;-74
2021/10/16 01:07:49;;;;;;;32.80;21.92;;;256.50;2252.80;;;;;;5053160;28;20021;-74
2021/10/16 01:10:15;;;;;;;36.75;23.20;;;256.50;2252.80;;;;;;5054805;28;20091;-74
2021/10/16 01:12:42;;;;;;;38.50;25.15;;;256.50;2252.80;;;;;;5053669;28;20476;-73
2021/10/16 01:15:11;;;;;;;35.08;23.17;;;256.50;2252.80;;;;;;5074370;28;20021;-74
2021/10/16 01:17:40;;;;;;;34.28;21.75;;;256.50;2252.80;;;;;;5073191;28;20048;-74
2021/10/16 01:20:07;;;;;;;34.88;24.42;;;256.50;2252.80;;;;;;5074090;28;20048;-76
2021/10/16 01:22:35;;;;;;;33.47;24.08;;;256.50;2252.80;;;;;;5076547;28;20055;-75
2021/10/16 01:25:03;;;;;;;33.53;23.33;;;256.50;2252.80;;;;;;5074095;28;20093;-75
2021/10/16 01:27:30;;;;;;;34.33;21.65;;;256.50;2252.80;;;;;;5076397;28;20019;-75
2021/10/16 01:29:56;;;;;;;33.25;21.45;;;256.50;2252.80;;;;;;5053719;28;20017;-75
2021/10/16 01:32:22;;;;;;;30.98;21.52;;;256.50;2252.80;;;;;;5074187;28;20031;-74
2021/10/16 01:34:48;;;;;;;31.60;21.90;;;256.50;2252.80;;;;;;5071703;28;20364;-74
2021/10/16 01:37:14;;;;;;;31.67;20.73;;;256.50;2252.80;;;;;;5066737;28;20025;-75
2021/10/16 01:39:40;;;;;;;32.90;20.90;;;256.50;2252.80;;;;;;5058714;28;20560;-75
2021/10/16 01:42:13;;;;;;;31.25;21.52;;;256.50;2252.80;;;;;;5079651;28;20036;-74
2021/10/16 01:44:41;;;;;;;30.63;19.85;;;256.50;2252.80;;;;;;5055515;28;20028;-74
2021/10/16 01:47:07;;;;;;;33.33;21.15;;;256.50;2252.80;;;;;;5074956;28;20123;-74
2021/10/16 01:49:33;;;;;;;28.85;19.20;;;256.50;2252.80;;;;;;5077759;28;20095;-75
2021/10/16 01:51:59;;;;;;;32.35;21.13;;;256.50;2252.80;;;;;;5071569;28;20024;-75
2021/10/16 01:54:25;;;;;;;33.45;21.52;;;256.50;2252.80;;;;;;5059456;28;20754;-75
2021/10/16 01:56:50;;;;;;;27.20;19.85;;;256.50;2252.80;;;;;;5080693;28;20039;-75
2021/10/16 01:59:19;;;;;;;31.35;20.73;;;256.50;2252.80;;;;;;5078049;28;20037;-74
2021/10/16 02:01:45;;;;;;;33.83;21.75;;;256.50;2252.80;;;;;;5077271;28;20533;-75
2021/10/16 02:04:12;;;;;;;31.58;21.38;;;256.50;2252.80;;;;;;5071346;28;20036;-74
2021/10/16 02:06:38;;;;;;;30.40;19.73;;;256.50;2252.80;;;;;;5059962;28;20023;-74
2021/10/16 02:09:05;;;;;;;30.77;20.13;;;256.50;2252.80;;;;;;5076124;28;20425;-74
2021/10/16 02:11:32;;;;;;;32.72;20.65;;;256.50;2252.80;;;;;;5059400;28;20447;-74
2021/10/16 02:13:58;;;;;;;31.50;21.67;;;256.50;2252.80;;;;;;5058336;28;20060;-74
2021/10/16 02:16:25;;;;;;;29.10;19.77;;;256.50;2252.80;;;;;;5081084;28;20049;-74
2021/10/16 02:18:50;;;;;;;30.95;20.48;;;256.50;2252.80;;;;;;5062261;28;20048;-75
2021/10/16 02:21:16;;;;;;;29.38;19.85;;;256.50;2252.80;;;;;;5074831;28;20495;-74
2021/10/16 02:23:42;;;;;;;29.65;20.55;;;256.50;2252.80;;;;;;5082071;28;20020;-74
2021/10/16 02:26:08;;;;;;;30.52;19.83;;;256.50;2252.80;;;;;;5067054;28;20429;-74
2021/10/16 02:28:34;;;;;;;29.92;20.27;;;256.40;2252.80;;;;;;5063105;28;20032;-74
2021/10/16 02:31:00;;;;;;;30.40;20.80;;;256.50;2252.80;;;;;;5084626;28;20052;-74
2021/10/16 02:33:26;;;;;;;28.63;20.17;;;256.50;2252.80;;;;;;5075330;28;20098;-74
2021/10/16 02:35:51;;;;;;;27.13;19.33;;;256.40;2252.80;;;;;;5075052;28;20056;-75
2021/10/16 02:38:17;;;;;;;29.48;19.50;;;256.50;2252.80;;;;;;5057217;28;20027;-74
2021/10/16 02:40:43;;;;;;;26.95;18.88;;;256.50;2252.80;;;;;;5074673;28;20111;-74
2021/10/16 02:43:09;;;;;;;28.17;18.73;;;256.50;2252.80;;;;;;5075199;28;20017;-74
2021/10/16 02:45:35;;;;;;;30.10;18.92;;;256.50;2252.80;;;;;;5074826;28;20028;-74
2021/10/16 02:48:01;;;;;;;27.38;17.70;;;256.50;2252.80;;;;;;5074773;28;20490;-74
2021/10/16 02:50:27;;;;;;;27.30;17.75;;;256.50;2252.80;;;;;;5075155;28;20021;-74
2021/10/16 02:52:52;;;;;;;26.77;18.73;;;256.50;2252.80;;;;;;5074662;28;20035;-74
2021/10/16 02:55:18;;;;;;;28.27;18.45;;;256.50;2252.80;;;;;;5057232;28;20120;-73
2021/10/16 02:57:44;;;;;;;28.67;18.17;;;256.50;2252.80;;;;;;5074586;28;20017;-74
2021/10/16 03:00:11;;;;;;;27.67;19.05;;;256.50;2252.80;;;;;;5074774;28;20040;-73
2021/10/16 03:02:37;;;;;;;27.70;18.55;;;256.50;2252.80;;;;;;5073040;28;20020;-74
2021/10/16 03:05:04;;;;;;;27.48;17.35;;;256.50;2252.80;;;;;;5074501;28;20429;-74
2021/10/16 03:07:30;;;;;;;28.67;19.50;;;256.50;2252.80;;;;;;5073846;28;20039;-74
2021/10/16 03:09:56;;;;;;;27.00;17.58;;;256.60;2252.80;;;;;;5074218;28;20107;-74
2021/10/16 03:12:22;;;;;;;23.25;17.27;;;256.60;2252.80;;;;;;5082207;28;20024;-75
2021/10/16 03:14:48;;;;;;;28.35;18.13;;;256.50;2252.80;;;;;;5077375;28;20048;-74
2021/10/16 03:17:13;;;;;;;24.13;17.55;;;256.60;2252.80;;;;;;5082790;28;20106;-74
2021/10/16 03:19:39;;;;;;;27.88;19.45;;;256.60;2252.80;;;;;;5055461;28;20032;-74
2021/10/16 03:22:05;;;;;;;26.60;19.33;;;256.60;2252.80;;;;;;5084873;28;20079;-74
2021/10/16 03:24:31;;;;;;;28.05;18.40;;;256.60;2252.80;;;;;;5092224;28;20093;-74
2021/10/16 03:26:57;;;;;;;27.75;16.77;;;256.60;2252.80;;;;;;5074269;28;20364;-76
2021/10/16 03:29:23;;;;;;;24.77;16.88;;;256.50;2252.80;;;;;;5082593;28;20050;-74
2021/10/16 03:31:48;;;;;;;26.70;17.00;;;256.50;2252.80;;;;;;5070736;28;20107;-74
2021/10/16 03:34:14;;;;;;;30.00;18.45;;;256.50;2252.80;;;;;;5073734;28;20020;-74
2021/10/16 03:36:40;;;;;;;30.73;20.15;;;256.50;2252.80;;;;;;5070411;28;20032;-74
2021/10/16 03:39:06;;;;;;;24.10;17.80;;;256.60;2252.80;;;;;;5073537;28;20491;-74
2021/10/16 03:41:32;;;;;;;26.10;17.88;;;256.50;2252.80;;;;;;5056142;28;20063;-74
2021/10/16 03:43:57;;;;;;;25.75;16.70;;;256.50;2252.80;;;;;;5073727;28;20021;-74
2021/10/16 03:46:23;;;;;;;26.83;17.20;;;256.50;2252.80;;;;;;5072825;28;20482;-74
2021/10/16 03:48:49;;;;;;;24.17;18.00;;;256.50;2252.80;;;;;;5073950;28;20019;-74
2021/10/16 03:51:15;;;;;;;24.42;17.20;;;256.50;2252.80;;;;;;5065995;28;20035;-74
2021/10/16 03:53:41;;;;;;;28.85;18.90;;;256.50;2252.80;;;;;;5073776;28;20035;-73
2021/10/16 03:56:06;;;;;;;26.60;17.60;;;256.50;2252.80;;;;;;5073528;28;20039;-74
2021/10/16 03:58:32;;;;;;;25.48;16.10;;;256.50;2252.80;;;;;;5069429;28;20119;-74
2021/10/16 04:01:02;;;;;;;27.27;18.65;;;256.60;2252.80;;;;;;5055323;28;20379;-75
2021/10/16 04:03:29;;;;;;;28.75;18.20;;;256.60;2252.80;;;;;;5070182;28;20079;-75
2021/10/16 04:05:55;;;;;;;26.13;17.48;;;256.50;2252.80;;;;;;5071871;28;20082;-75
2021/10/16 04:08:21;;;;;;;23.27;16.95;;;256.50;2252.80;;;;;;5072472;28;20025;-74
2021/10/16 04:10:47;;;;;;;23.17;16.88;;;256.50;2252.80;;;;;;5055686;28;20365;-74
2021/10/16 04:13:13;;;;;;;22.65;16.67;;;256.50;2252.80;;;;;;5072980;28;20032;-74
2021/10/16 04:15:39;;;;;;;23.17;17.42;;;256.50;2252.80;;;;;;5073290;28;20074;-74
2021/10/16 04:18:05;;;;;;;25.40;16.95;;;256.50;2252.80;;;;;;5072909;28;20024;-74
2021/10/16 04:20:32;;;;;;;26.15;17.63;;;256.50;2252.80;;;;;;5073060;28;20458;-74
2021/10/16 04:22:58;;;;;;;26.02;17.15;;;256.50;2252.80;;;;;;5072819;28;20025;-73
2021/10/16 04:25:24;;;;;;;25.92;17.27;;;256.50;2252.80;;;;;;5072989;28;20390;-74
2021/10/16 04:27:50;;;;;;;24.45;16.40;;;256.50;2252.80;;;;;;5059301;28;20625;-74
2021/10/16 04:30:17;;;;;;;27.63;16.90;;;256.50;2252.80;;;;;;5067409;28;20028;-74
2021/10/16 04:32:43;;;;;;;24.30;16.77;;;256.50;2252.80;;;;;;5072258;28;20036;-74
2021/10/16 04:35:09;;;;;;;24.50;17.58;;;256.40;2252.80;;;;;;5072540;28;20029;-74
2021/10/16 04:37:36;;;;;;;26.98;19.17;;;256.40;2252.80;;;;;;5072990;28;20031;-74
2021/10/16 04:40:10;;;;;;;28.55;18.20;;;256.40;2252.80;;;;;;5072527;28;20147;-73
2021/10/16 04:42:36;;;;;;;29.60;17.42;;;256.40;2252.80;;;;;;5072838;28;20123;-73
2021/10/16 04:45:03;;;;;;;25.80;18.27;;;256.50;2252.80;;;;;;5070932;28;20028;-73
2021/10/16 04:47:29;;;;;;;26.17;17.67;;;256.40;2252.80;;;;;;5072919;28;20034;-74
2021/10/16 04:49:55;;;;;;;29.25;19.05;;;256.40;2252.80;;;;;;5059103;28;20036;-73
2021/10/16 04:52:21;;;;;;;26.33;16.27;;;256.40;2252.80;;;;;;5071980;28;20032;-73
2021/10/16 04:54:46;;;;;;;25.65;17.08;;;256.40;2252.80;;;;;;5086159;28;20443;-74
2021/10/16 04:57:12;;;;;;;23.63;17.92;;;256.40;2252.80;;;;;;5053597;28;20483;-73
2021/10/16 04:59:38;;;;;;;29.35;18.50;;;256.40;2252.80;;;;;;5067843;28;20043;-74
2021/10/16 05:02:03;;;;;;;25.63;17.60;;;256.40;2252.80;;;;;;5078154;28;20037;-73
2021/10/16 05:04:29;;;;;;;26.85;18.27;;;256.40;2252.80;;;;;;5072821;28;20463;-73
2021/10/16 05:06:55;;;;;;;29.17;19.58;;;256.40;2252.80;;;;;;5059926;28;20078;-74
2021/10/16 05:09:21;;;;;;;30.73;20.10;;;256.40;2252.80;;;;;;5074596;28;20042;-74
2021/10/16 05:11:47;;;;;;;27.95;18.42;;;256.50;2252.80;;;;;;5074943;28;20024;-74
2021/10/16 05:14:13;;;;;;;28.02;18.60;;;256.50;2252.80;;;;;;5072906;28;21525;-74
2021/10/16 05:16:38;;;;;;;29.20;19.88;;;256.40;2252.80;;;;;;5072598;28;20091;-74
2021/10/16 05:19:04;;;;;;;28.67;20.58;;;256.50;2252.80;;;;;;5072526;28;20028;-74
2021/10/16 05:21:30;;;;;;;26.52;17.90;;;256.50;2252.80;;;;;;5071564;28;20523;-74
2021/10/16 05:23:56;;;;;;;28.23;19.05;;;256.50;2252.80;;;;;;5071641;28;20021;-74
2021/10/16 05:26:22;;;;;;;26.55;18.55;;;256.50;2252.80;;;;;;5071824;28;20097;-76
2021/10/16 05:28:48;;;;;;;26.27;18.92;;;256.50;2252.80;;;;;;5071595;28;20024;-76
2021/10/16 05:31:13;;;;;;;29.83;19.15;;;256.50;2252.80;;;;;;5071138;28;20062;-76
2021/10/16 05:33:39;;;;;;;28.40;18.60;;;256.50;2252.80;;;;;;5053613;28;20047;-76
2021/10/16 05:36:05;;;;;;;29.67;18.42;;;256.50;2252.80;;;;;;5070794;28;20056;-76
2021/10/16 05:38:31;;;;;;;25.33;18.27;;;256.50;2252.80;;;;;;5071566;28;20123;-77
2021/10/16 05:40:57;;;;;;;28.02;19.00;;;256.60;2252.80;;;;;;5063671;28;20028;-75
2021/10/16 05:43:22;;;;;;;31.80;19.52;;;256.60;2252.80;;;;;;5071579;28;20024;-76
2021/10/16 05:45:48;;;;;;;29.88;19.70;;;256.60;2252.80;;;;;;5070727;28;20051;-77
2021/10/16 05:48:14;;;;;;;31.85;21.58;;;256.70;2252.80;;;;;;5076168;28;20070;-76
2021/10/16 05:50:40;;;;;;;30.02;18.92;;;256.70;2252.80;;;;;;5066976;28;20700;-77
2021/10/16 05:53:06;;;;;;;28.50;18.00;;;256.70;2252.80;;;;;;5062095;28;20039;-76
2021/10/16 05:55:32;;;;;;;33.60;20.00;;;256.80;2252.80;;;;;;5060818;28;20404;-77
2021/10/16 05:57:58;;;;;;;28.08;19.25;;;256.80;2252.80;;;;;;5078265;28;20425;-78
2021/10/16 06:00:23;;;;;;;26.88;18.73;;;256.80;2252.80;;;;;;5073824;28;20024;-77
2021/10/16 06:02:49;;;;;;;28.23;18.00;;;256.80;2252.80;;;;;;5082987;28;20021;-75
2021/10/16 06:05:15;;;;;;;28.42;19.23;;;256.80;2252.80;;;;;;5076782;28;20108;-77
2021/10/16 06:07:41;;;;;;;28.63;20.25;;;256.80;2252.80;;;;;;5056889;28;20119;-78
2021/10/16 06:10:07;;;;;;;28.58;19.42;;;256.80;2252.80;;;;;;5067110;28;20021;-75
2021/10/16 06:12:33;;;;;;;27.17;18.50;;;256.80;2252.80;;;;;;5076644;28;20032;-76
2021/10/16 06:14:58;;;;;;;32.05;19.90;;;256.80;2252.80;;;;;;5078186;28;20037;-75
2021/10/16 06:17:24;;;;;;;33.40;20.23;;;256.90;2252.80;;;;;;5078502;28;20055;-75
2021/10/16 06:19:52;;;;;;;28.25;19.08;;;256.90;2252.80;;;;;;5078103;28;20113;-75
2021/10/16 06:22:17;;;;;;;25.95;19.42;;;256.90;2252.80;;;;;;5060280;28;20050;-75
2021/10/16 06:24:43;;;;;;;29.77;20.20;;;256.90;2252.80;;;;;;5059732;28;20479;-75
2021/10/16 06:27:09;;;;;;;31.80;23.15;;;256.90;2252.80;;;;;;5060536;28;20111;-76
2021/10/16 06:29:36;;;;;;;34.10;20.42;;;256.90;2252.80;;;;;;5078949;28;20582;-77
2021/10/16 06:32:02;;;;;;;30.50;20.25;;;256.90;2252.80;;;;;;5059055;28;20119;-75
2021/10/16 06:34:28;;;;;;;28.20;19.70;;;256.90;2252.80;;;;;;5065130;28;20483;-74
2021/10/16 06:36:54;;;;;;;32.08;21.45;;;256.90;2252.80;;;;;;5076746;28;20074;-74
2021/10/16 06:39:20;;;;;;;33.88;21.63;;;256.90;2252.80;;;;;;5061315;28;20741;-73
2021/10/16 06:41:45;;;;;;;30.52;22.50;;;256.90;2252.80;;;;;;5081960;28;20032;-74
2021/10/16 06:44:11;;;;;;;32.47;22.38;;;281.60;2278.40;;;;;;5062055;28;20123;-74
2021/10/16 06:46:37;;;;;;;30.73;21.70;;;281.60;2278.40;;;;;;5061750;28;20027;-75
2021/10/16 06:49:03;;;;;;;31.20;20.65;;;281.60;2278.40;;;;;;5077536;28;20104;-75
2021/10/16 06:51:28;;;;;;;30.85;20.38;;;256.90;2252.80;;;;;;5078629;28;20120;-74
2021/10/16 06:53:54;;;;;;;26.75;18.02;;;281.60;2278.40;;;;;;5077455;28;20054;-75
2021/10/16 06:56:20;;;;;;;28.80;20.30;;;281.60;2278.40;;;;;;5077171;28;20055;-74
2021/10/16 06:58:45;;;;;;;27.27;18.90;;;281.70;2278.40;;;;;;5073076;28;20033;-74
2021/10/16 07:01:12;;;;;;;31.35;19.75;;;281.70;2278.40;;;;;;5076526;28;20064;-74
2021/10/16 07:03:37;;;;;;;32.45;22.20;;;281.80;2278.40;;;;;;5073526;28;20016;-74
2021/10/16 07:06:03;;;;;;;28.98;20.83;;;281.80;2278.40;;;;;;5055743;28;20020;-74
2021/10/16 07:08:29;;;;;;;29.60;19.80;;;281.90;2278.40;;;;;;5072627;28;20044;-74
2021/10/16 07:10:56;;;;;;;31.17;20.02;;;282.00;2278.40;;;;;;5072074;28;20035;-74
2021/10/16 07:13:22;;;;;;;29.75;19.85;;;282.00;2278.40;;;;;;5073830;28;20112;-74
2021/10/16 07:15:48;;;;;;;27.65;17.80;;;282.10;2278.40;;;;;;5057212;28;20790;-74
2021/10/16 07:18:14;;;;;;;27.58;18.45;;;282.20;2278.40;;;;;;5075353;28;20532;-73
2021/10/16 07:20:40;;;;;;;29.83;18.92;;;282.30;2278.40;;;;;;5073805;28;20059;-74
2021/10/16 07:23:07;;;;;;;25.50;17.58;;;282.40;2278.40;;;;;;5074552;28;20056;-76
2021/10/16 07:25:33;;;;;;;24.55;17.85;;;282.40;2278.40;;;;;;5075844;28;20027;-73
2021/10/16 07:27:59;;;;;;;27.55;16.73;;;282.50;2278.40;;;;;;5072608;28;20025;-75
2021/10/16 07:30:24;;;;;;;26.52;18.02;;;282.50;2278.40;;;;;;5060394;28;20111;-74
2021/10/16 07:32:50;;;;;;;29.10;19.02;;;307.20;2304.00;;;;;;5057373;28;20131;-74
2021/10/16 07:35:16;;;;;;;25.88;16.58;;;307.20;2304.00;;;;;;5075458;28;20030;-74
2021/10/16 07:37:42;;;;;;;24.90;17.73;;;307.30;2304.00;;;;;;5075289;28;20029;-74
2021/10/16 07:40:09;;;;;;;26.98;17.40;;;307.40;2304.00;;;;;;5073408;28;20016;-74
2021/10/16 07:42:35;;;;;;;24.13;16.83;;;307.50;2304.00;;;;;;5071980;28;20059;-75
2021/10/16 07:45:00;;;;;;;25.35;17.08;;;307.60;2304.00;;;;;;5071264;28;20556;-74
2021/10/16 07:47:27;;;;;;;25.20;18.83;;;307.70;2304.00;;;;;;5072366;28;20029;-74
2021/10/16 07:49:56;;;;;;;24.73;16.50;;;307.70;2304.00;;;;;;5072963;28;20376;-74
2021/10/16 07:52:23;;;;;;;25.23;16.85;;;307.90;2304.00;;;;;;5072679;28;20028;-74
2021/10/16 07:54:48;;;;;;;23.13;17.45;;;307.90;2304.00;;;;;;5074267;28;20047;-74
2021/10/16 07:57:14;;;;;;;20.90;15.23;;;308.00;2304.00;;;;;;5069973;28;20472;-74
2021/10/16 07:59:41;;;;;;;30.08;18.08;;;308.10;2304.00;;;;;;5072813;28;20020;-74
2021/10/16 08:02:07;;;;;;;23.38;16.80;;;332.80;2329.60;;;;;;5053603;28;20024;-74
2021/10/16 08:04:33;;;;;;;22.60;17.65;;;308.10;2304.00;;;;;;5072661;28;20020;-74
2021/10/16 08:06:58;;;;;;;24.77;16.88;;;332.80;2329.60;;;;;;5073495;28;20021;-74
2021/10/16 08:09:24;;;;;;;24.50;17.55;;;332.90;2329.60;;;;;;5076135;28;20029;-73
2021/10/16 08:11:50;;;;;;;23.33;17.02;;;333.10;2329.60;;;;;;5071937;28;20217;-77
2021/10/16 08:14:16;;;;;;;27.25;18.88;;;333.10;2329.60;;;;;;5073399;28;20530;-75
2021/10/16 08:16:41;;;;;;;23.60;17.58;;;333.30;2329.60;;;;;;5059031;28;20552;-74
2021/10/16 08:19:07;;;;;;;28.55;16.83;;;333.30;2329.60;;;;;;5059844;28;20063;-74
2021/10/16 08:21:35;;;;;;;21.83;15.23;;;333.40;2329.60;;;;;;5072702;28;20107;-70
2021/10/16 08:24:01;;;;;;;37.25;21.42;;;333.50;2329.60;;;;;;5071905;28;20024;-73
2021/10/16 08:26:27;;;;;;;31.95;19.00;;;333.50;2329.60;;;;;;5060168;28;20509;-70
2021/10/16 08:28:52;;;;;;;24.75;17.20;;;333.60;2329.60;;;;;;5071879;28;20025;-73
2021/10/16 08:31:18;;;;;;;28.38;18.10;;;333.60;2329.60;;;;;;5081081;28;20050;-74
2021/10/16 08:33:44;;;;;;;27.70;17.50;;;358.40;2329.60;;;;;;5068741;28;20032;-72
2021/10/16 08:36:12;;;;;;;28.08;18.15;;;358.60;2329.60;;;;;;5037743;28;20033;-73
2021/10/16 08:38:38;;;;;;;22.27;15.15;;;358.60;2329.60;;;;;;5051500;28;20419;-72
2021/10/16 08:41:03;;;;;;;27.70;16.65;;;358.80;2329.60;;;;;;5056534;28;20032;-72
2021/10/16 08:43:29;;;;;;;31.35;17.77;;;358.90;2329.60;;;;;;5056825;28;20476;-73
2021/10/16 08:46:00;;;;;;;28.33;15.82;;;359.00;2329.60;;;;;;5051478;28;20391;-73
2021/10/16 08:48:26;;;;;;;26.42;16.45;;;359.10;2329.60;;;;;;5061796;28;20045;-73
2021/10/16 08:50:53;;;;;;;23.90;15.98;;;359.20;2329.60;;;;;;5051677;28;20021;-73
2021/10/16 08:53:18;;;;;;;28.27;14.95;;;384.00;2329.60;;;;;;5060061;28;20563;-73
2021/10/16 08:55:52;;;;;;;22.38;16.50;;;384.20;2329.60;;;;;;5052226;28;20032;-74
2021/10/16 08:58:19;;;;;;;22.65;14.90;;;384.40;2329.60;;;;;;5075328;28;20357;-73
2021/10/16 09:00:54;;;;;;;25.33;15.45;;;384.60;2329.60;;;;;;5072316;28;20017;-74
2021/10/16 09:03:46;;;;;;;23.30;15.10;;;384.80;2329.60;;;;;;5086156;28;20028;-74
2021/10/16 09:06:25;;;;;;;21.80;14.27;;;384.80;2329.60;;;;;;5050367;28;20383;-74
2021/10/16 09:09:00;;;;;;;25.58;16.42;;;384.70;2329.60;;;;;;5089509;28;20020;-74
2021/10/16 09:11:32;;;;;;;22.15;15.30;;;384.80;2329.60;;;;;;5090375;28;20517;-74
2021/10/16 09:14:17;;;;;;;20.90;13.65;;;384.90;2329.60;;;;;;5072233;28;20038;-73
2021/10/16 09:16:45;;;;;;;21.67;13.05;;;384.80;2329.60;;;;;;5071946;28;20449;-73
2021/10/16 09:19:31;;;;;;;26.27;13.98;;;384.80;2329.60;;;;;;5068401;28;20045;-73
2021/10/16 09:22:18;;;;;;;22.38;13.20;;;384.80;2329.60;;;;;;5049347;28;20110;-73
2021/10/16 09:24:47;;;;;;;19.45;13.98;;;384.90;2329.60;;;;;;5054757;28;20104;-73
2021/10/16 09:27:18;;;;;;;25.33;15.32;;;409.60;2355.20;;;;;;5048398;28;20032;-73
2021/10/16 09:29:47;;;;;;;22.13;15.05;;;409.60;2355.20;;;;;;5056017;28;20475;-73
2021/10/16 09:32:15;;;;;;;22.85;14.20;;;409.70;2355.20;;;;;;5071072;28;20121;-74
2021/10/16 09:34:43;;;;;;;21.20;13.73;;;409.80;2355.20;;;;;;5067486;28;20129;-73
2021/10/16 09:37:11;;;;;;;22.95;13.90;;;409.90;2355.20;;;;;;5058701;28;20020;-74
2021/10/16 09:39:42;;;;;;;26.42;16.55;;;410.00;2355.20;;;;;;5050501;28;20502;-73
2021/10/16 09:42:10;;;;;;;29.20;17.77;;;410.00;2355.20;;;;;;5051712;28;20027;-73
2021/10/16 09:44:40;;;;;;;21.27;14.18;;;410.00;2355.20;;;;;;5051202;28;20487;-73
2021/10/16 09:47:21;;;;;;;22.25;14.07;;;410.30;2355.20;;;;;;5064278;28;20017;-73
2021/10/16 09:49:57;;;;;;;17.65;12.40;;;410.50;2355.20;;;;;;5064264;28;20024;-73
2021/10/16 09:52:32;;;;;;;;;;;435.20;2355.20;;;;;;5049558;28;20021;-73
2021/10/16 09:54:57;;;;;;;17.67;12.27;;;435.50;2355.20;;;;;;5055563;28;20383;-74
2021/10/16 09:57:25;;;;;;;16.58;11.75;;;435.70;2355.20;;;;;;5048072;28;20024;-73
2021/10/16 09:59:52;;;;;;;19.67;12.73;;;436.00;2355.20;;;;;;5069472;28;20037;-73
2021/10/16 10:02:18;;;;;;;26.75;13.52;;;460.80;2380.80;;;;;;5059285;28;20186;-75
2021/10/16 10:04:46;;;;;;;21.52;13.55;;;460.90;2380.80;;;;;;5055803;28;20422;-73
2021/10/16 10:07:14;;;;;;;21.45;12.32;;;461.20;2380.80;;;;;;5051050;28;20478;-73
2021/10/16 10:09:42;;;;;;;18.83;10.68;;;461.30;2380.80;;;;;;5070825;28;20100;-73
2021/10/16 10:12:09;;;;;;;17.38;10.95;;;461.40;2380.80;;;;;;5053965;28;20017;-75
2021/10/16 10:14:39;;;;;;;14.63;9.75;;;461.40;2380.80;;;;;;5071595;28;20024;-74
2021/10/16 10:17:05;;;;;;;14.18;9.27;;;461.50;2380.80;;;;;;5070393;28;20124;-74
2021/10/16 10:19:36;;;;;;;12.63;7.75;;;486.40;2380.80;;;;;;5054852;28;20044;-74
2021/10/16 10:22:02;;;;;;;13.43;7.90;;;461.50;2380.80;;;;;;5070707;28;20029;-74
2021/10/16 10:24:49;;;;;;;9.73;7.68;;;461.40;2355.20;;;;;;5053866;28;20082;-73
2021/10/16 10:27:17;;;;;;;12.52;9.07;;;461.40;2355.20;;;;;;5053874;28;20016;-74
2021/10/16 10:29:49;;;;;;;15.32;10.60;;;461.30;2380.80;;;;;;5070008;28;20028;-75
2021/10/16 10:32:26;;;;;;;16.52;10.68;;;461.30;2380.80;;;;;;5053650;28;20032;-76
2021/10/16 10:34:56;;;;;;;13.80;9.32;;;461.20;2380.80;;;;;;5075828;28;20024;-75
2021/10/16 10:37:37;;;;;;;10.82;8.95;;;461.50;2380.80;;;;;;5075294;28;20497;-75
2021/10/16 10:40:20;;;;;;;11.57;8.00;;;486.40;2380.80;;;;;;5072748;28;20016;-75
2021/10/16 10:42:55;;;;;;;11.90;8.50;;;486.40;2329.60;;;;;;5059623;28;20492;-75
2021/10/16 10:45:38;;;;;;;14.38;9.05;;;486.40;2278.40;;;;;;5054821;28;20050;-75
2021/10/16 10:48:10;;;;;;;21.48;11.90;;;486.40;2227.20;;;;;;5075400;28;20021;-72
2021/10/16 10:50:44;;;;;;;23.23;12.07;;;486.80;2252.80;;;;;;5074390;28;20017;-76
2021/10/16 10:53:12;;;;;;;23.50;12.18;;;487.20;2201.60;;;;;;5075329;28;20440;-76
2021/10/16 10:56:00;;;;;;;13.23;9.85;;;487.20;2227.20;;;;;;5076789;28;20085;-76
2021/10/16 10:58:48;;;;;;;17.98;10.30;;;486.90;2176.00;;;;;;5073771;28;20039;-75
2021/10/16 11:01:42;;;;;;;17.83;9.23;;;487.10;2176.00;;;;;;5073157;28;20028;-76
2021/10/16 11:04:08;;;;;;;17.60;12.15;;;512.00;2176.00;;;;;;5072664;28;20793;-72
2021/10/16 11:06:34;;;;;;;17.48;11.85;;;487.30;2227.20;;;;;;5072946;28;20048;-76
2021/10/16 11:09:16;;;;;;;15.85;11.88;;;487.10;2227.20;;;;;;5055596;28;20617;-76
2021/10/16 11:11:46;;;;;;;16.65;11.52;;;487.30;2201.60;;;;;;5056019;28;20039;-74
2021/10/16 11:14:12;;;;;;;14.57;10.38;;;487.10;2278.40;;;;;;5074901;28;20398;-74
2021/10/16 11:16:54;;;;;;;17.30;11.68;;;487.00;2227.20;;;;;;5073202;28;20055;-74
2021/10/16 11:19:20;;;;;;;13.13;10.10;;;487.10;2252.80;;;;;;5072682;28;20033;-76
2021/10/16 11:21:54;;;;;;;13.90;8.45;;;512.00;2124.80;;;;;;5072786;28;20101;-75
2021/10/16 11:24:20;;;;;;;50.60;15.80;;;487.30;2048.00;;;;;;5073699;28;20036;-79
2021/10/16 11:26:57;;;;;;;26.73;10.38;;;487.20;2073.60;;;;;;5056080;28;20486;-77
2021/10/16 11:29:35;;;;;;;12.88;9.45;;;487.10;2073.60;;;;;;5053996;28;20037;-79
2021/10/16 11:32:33;;;;;;;13.77;9.63;;;486.80;2124.80;;;;;;5058813;28;20036;-79
2021/10/16 11:35:05;;;;;;;24.40;11.57;;;486.40;2150.40;;;;;;4990687;28;20375;-77
2021/10/16 11:37:36;;;;;;;17.50;11.25;;;486.60;2150.40;;;;;;4995710;28;20046;-77
2021/10/16 11:40:06;;;;;;;22.02;13.70;;;486.70;2150.40;;;;;;4991697;28;20057;-79
2021/10/16 11:42:31;;;;;;;16.00;10.88;;;486.90;2176.00;;;;;;4994961;28;20429;-78
2021/10/16 11:44:57;;;;;;;14.18;10.27;;;487.10;2150.40;;;;;;4997669;28;20041;-78
2021/10/16 11:47:23;;;;;;;17.33;12.40;;;537.80;2099.20;;;;;;4994187;28;20421;-76
2021/10/16 11:49:49;;;;;;;15.27;10.75;;;538.30;2022.40;;;;;;4979838;28;20067;-76
2021/10/16 11:52:22;;;;;;;16.50;10.18;;;563.40;1996.80;;;;;;4996848;28;20829;-77
2021/10/16 11:54:48;;;;;;;15.93;11.25;;;563.50;1945.60;;;;;;4992658;28;20037;-76
2021/10/16 11:57:25;;;;;;;16.25;11.30;;;563.60;1945.60;;;;;;4994221;28;20057;-77
2021/10/16 11:59:52;;;;;;;13.35;9.60;;;564.00;1894.40;;;;;;4990779;28;20030;-78
2021/10/16 12:02:36;;;;;;;13.23;10.93;;;588.80;1868.80;;;;;;4986854;28;20053;-78
2021/10/16 12:05:28;;;;;;;16.88;10.80;;;588.90;1894.40;;;;;;4996069;28;20042;-80